Time;durP1;ratioP1;P1;durP2;ratioP2;P2;SDS_P1;SDS_P2;PMS_P1;PMS_P2;Temp;Humidity;BMP_temperature;BMP_pressure;BME280_temperature;BME280_humidity;BME280_pressure;Samples;Min_cycle;Max_cycle;Signal;HPM_P1;HPM_P2
2022/04/05 00:00:08;;;;;;;3.05;2.25;;;12.50;91.20;;;;;;5109796;28;20020;-63
2022/04/05 00:02:34;;;;;;;3.33;2.58;;;12.50;91.10;;;;;;5110253;28;20505;-63
2022/04/05 00:04:59;;;;;;;4.97;3.22;;;12.60;90.80;;;;;;5109857;28;20067;-63
2022/04/05 00:07:25;;;;;;;6.15;2.60;;;12.50;91.00;;;;;;5112244;28;20185;-63
2022/04/05 00:09:51;;;;;;;5.00;3.08;;;12.50;90.80;;;;;;5112789;28;20023;-63
2022/04/05 00:12:20;;;;;;;2.83;2.35;;;12.50;90.80;;;;;;5112771;28;20035;-63
2022/04/05 00:14:46;;;;;;;4.38;2.85;;;12.50;91.00;;;;;;5112723;28;20035;-63
2022/04/05 00:17:12;;;;;;;5.65;2.80;;;12.40;91.10;;;;;;5112468;28;20073;-63
2022/04/05 00:19:38;;;;;;;3.17;2.33;;;12.40;91.10;;;;;;5112526;28;20028;-63
2022/04/05 00:22:03;;;;;;;4.10;2.53;;;12.30;91.30;;;;;;5108855;28;20465;-63
2022/04/05 00:24:29;;;;;;;6.13;2.83;;;12.20;91.40;;;;;;5109385;28;20036;-63
2022/04/05 00:26:55;;;;;;;4.90;3.03;;;12.10;91.40;;;;;;5109499;28;20023;-64
2022/04/05 00:29:22;;;;;;;4.15;2.60;;;12.10;91.50;;;;;;5111179;28;20020;-63
2022/04/05 00:31:50;;;;;;;3.05;2.40;;;12.10;91.70;;;;;;5112198;28;20474;-63
2022/04/05 00:34:16;;;;;;;5.07;2.67;;;12.00;91.90;;;;;;5112545;28;20020;-63
2022/04/05 00:36:41;;;;;;;8.68;3.10;;;12.00;92.00;;;;;;5112037;28;20455;-64
2022/04/05 00:39:07;;;;;;;5.28;3.10;;;12.00;91.80;;;;;;5112096;28;20022;-63
2022/04/05 00:41:33;;;;;;;4.10;3.05;;;12.00;91.90;;;;;;5111910;28;20039;-63
2022/04/05 00:43:59;;;;;;;5.03;2.92;;;12.00;92.00;;;;;;5112026;28;20148;-63
2022/04/05 00:46:24;;;;;;;5.40;3.30;;;12.00;92.20;;;;;;5111842;28;20077;-63
2022/04/05 00:48:57;;;;;;;6.65;3.30;;;12.00;92.00;;;;;;5112157;28;20043;-63
2022/04/05 00:51:24;;;;;;;5.38;3.30;;;11.90;92.30;;;;;;5111921;28;20081;-63
2022/04/05 00:53:55;;;;;;;6.00;3.40;;;11.90;92.30;;;;;;5111971;28;20031;-63
2022/04/05 00:56:22;;;;;;;6.22;3.72;;;11.80;92.40;;;;;;5102124;28;20097;-63
2022/04/05 00:58:50;;;;;;;5.93;3.25;;;11.80;92.60;;;;;;5091377;28;20114;-63
2022/04/05 01:01:18;;;;;;;4.60;3.28;;;11.70;92.80;;;;;;5110885;28;20077;-63
2022/04/05 01:03:49;;;;;;;5.63;3.80;;;11.70;92.90;;;;;;5108817;28;20053;-63
2022/04/05 01:06:22;;;;;;;5.68;3.83;;;11.70;93.10;;;;;;5107776;28;20026;-64
2022/04/05 01:08:49;;;;;;;8.10;4.40;;;11.70;93.20;;;;;;5110799;28;20097;-63
2022/04/05 01:11:15;;;;;;;8.32;3.92;;;11.70;93.20;;;;;;5108378;28;20102;-63
2022/04/05 01:13:41;;;;;;;6.43;4.10;;;11.70;93.20;;;;;;5108489;28;20110;-64
2022/04/05 01:16:07;;;;;;;8.05;4.25;;;11.80;93.30;;;;;;5108339;28;20027;-63
2022/04/05 01:18:33;;;;;;;9.15;4.43;;;11.80;93.20;;;;;;5111728;28;20042;-63
2022/04/05 01:20:59;;;;;;;10.20;4.70;;;11.80;93.20;;;;;;5110827;28;20054;-63
2022/04/05 01:23:25;;;;;;;8.50;4.68;;;11.80;93.30;;;;;;5111279;28;20027;-63
2022/04/05 01:25:52;;;;;;;8.00;4.68;;;11.80;93.50;;;;;;5111223;28;20070;-63
2022/04/05 01:28:19;;;;;;;10.27;5.50;;;11.80;93.50;;;;;;5111202;28;20482;-65
2022/04/05 01:30:44;;;;;;;9.18;5.22;;;11.80;93.60;;;;;;5111225;28;20055;-63
2022/04/05 01:33:10;;;;;;;10.23;5.13;;;11.70;93.70;;;;;;5111380;28;20515;-63
2022/04/05 01:35:36;;;;;;;10.18;4.18;;;11.70;93.70;;;;;;5111149;28;20030;-63
2022/04/05 01:38:02;;;;;;;9.77;5.25;;;11.70;93.70;;;;;;5110766;28;20096;-63
2022/04/05 01:40:28;;;;;;;8.27;4.82;;;11.70;93.60;;;;;;5110836;28;20541;-63
2022/04/05 01:42:54;;;;;;;9.52;5.13;;;11.70;93.70;;;;;;5110522;28;20035;-63
2022/04/05 01:45:20;;;;;;;8.45;4.72;;;11.70;93.70;;;;;;5110239;28;20370;-63
2022/04/05 01:47:46;;;;;;;7.93;4.43;;;11.70;93.70;;;;;;5111328;28;20031;-63
2022/04/05 01:50:12;;;;;;;8.68;4.75;;;11.60;93.80;;;;;;5089863;28;20496;-64
2022/04/05 01:52:37;;;;;;;8.25;4.70;;;11.60;93.90;;;;;;5087145;28;20036;-63
2022/04/05 01:55:07;;;;;;;9.85;5.10;;;11.60;94.00;;;;;;5087085;28;20063;-63
2022/04/05 01:57:34;;;;;;;7.73;4.13;;;11.60;94.10;;;;;;5087287;28;20077;-63
2022/04/05 02:00:01;;;;;;;7.40;4.63;;;11.50;94.10;;;;;;5096359;28;20028;-64
2022/04/05 02:02:27;;;;;;;8.07;4.47;;;11.50;94.00;;;;;;5107641;28;20055;-64
2022/04/05 02:04:52;;;;;;;6.70;4.20;;;11.50;94.00;;;;;;5109768;28;20034;-63
2022/04/05 02:07:19;;;;;;;6.45;4.50;;;11.50;94.00;;;;;;5110595;28;20038;-63
2022/04/05 02:09:47;;;;;;;5.85;4.03;;;11.50;94.00;;;;;;5110452;28;20023;-63
2022/04/05 02:12:13;;;;;;;7.68;4.65;;;11.50;93.90;;;;;;5110713;28;20042;-63
2022/04/05 02:14:39;;;;;;;6.18;3.80;;;11.60;93.70;;;;;;5110365;28;20382;-64
2022/04/05 02:17:08;;;;;;;9.43;3.85;;;11.60;93.80;;;;;;5110184;28;20027;-64
2022/04/05 02:19:36;;;;;;;6.07;4.00;;;11.60;93.60;;;;;;5110619;28;20046;-64
2022/04/05 02:22:02;;;;;;;5.13;3.70;;;11.60;93.60;;;;;;5109872;28;20563;-63
2022/04/05 02:24:27;;;;;;;5.53;3.53;;;11.60;93.20;;;;;;5110496;28;20478;-64
2022/04/05 02:26:53;;;;;;;5.28;3.35;;;11.60;93.10;;;;;;5110639;28;20035;-64
2022/04/05 02:29:19;;;;;;;5.18;3.15;;;11.60;93.00;;;;;;5110605;28;20076;-64
2022/04/05 02:31:44;;;;;;;4.75;2.72;;;11.70;92.80;;;;;;5110313;28;20465;-63
2022/04/05 02:34:10;;;;;;;5.05;3.13;;;11.70;93.00;;;;;;5110263;28;20542;-64
2022/04/05 02:36:36;;;;;;;6.03;3.28;;;11.70;92.70;;;;;;5110087;28;20024;-63
2022/04/05 02:39:03;;;;;;;4.63;3.30;;;11.70;92.90;;;;;;5110414;28;20355;-63
2022/04/05 02:41:28;;;;;;;4.53;3.10;;;11.70;92.70;;;;;;5110165;28;20562;-63
2022/04/05 02:43:54;;;;;;;7.35;3.70;;;11.70;92.90;;;;;;5110509;28;20027;-64
2022/04/05 02:46:20;;;;;;;6.38;2.90;;;11.60;92.90;;;;;;5110037;28;20473;-63
2022/04/05 02:48:46;;;;;;;5.63;2.67;;;11.60;93.20;;;;;;5110124;28;20023;-63
2022/04/05 02:51:15;;;;;;;4.30;2.92;;;11.60;93.00;;;;;;5107591;28;20055;-63
2022/04/05 02:53:42;;;;;;;5.40;3.08;;;11.50;93.00;;;;;;5107334;28;20039;-63
2022/04/05 02:56:08;;;;;;;8.02;3.25;;;11.50;93.30;;;;;;5107332;28;20032;-63
2022/04/05 02:58:35;;;;;;;6.20;3.35;;;11.50;93.50;;;;;;5107082;28;20024;-64
2022/04/05 03:01:01;;;;;;;5.72;3.47;;;11.40;93.60;;;;;;5106639;28;20544;-63
2022/04/05 03:03:27;;;;;;;6.18;3.65;;;11.40;93.80;;;;;;5104118;28;20047;-63
2022/04/05 03:05:52;;;;;;;5.55;3.53;;;11.40;93.60;;;;;;5109789;28;20032;-63
2022/04/05 03:08:18;;;;;;;7.25;3.47;;;11.40;93.70;;;;;;5110016;28;20430;-64
2022/04/05 03:10:43;;;;;;;5.57;3.47;;;11.30;93.90;;;;;;5110024;28;20019;-63
2022/04/05 03:13:09;;;;;;;5.68;3.10;;;11.30;94.20;;;;;;5110128;28;20036;-63
2022/04/05 03:15:35;;;;;;;7.38;3.80;;;11.30;93.90;;;;;;5109871;28;20415;-63
2022/04/05 03:18:00;;;;;;;4.38;2.97;;;11.30;93.60;;;;;;5109721;28;20497;-63
2022/04/05 03:20:26;;;;;;;5.93;3.15;;;11.40;93.50;;;;;;5109712;28;20034;-64
2022/04/05 03:22:53;;;;;;;5.50;2.70;;;11.40;93.40;;;;;;5109496;28;20051;-63
2022/04/05 03:25:19;;;;;;;4.45;2.92;;;11.40;93.40;;;;;;5109860;28;20015;-63
2022/04/05 03:27:44;;;;;;;5.32;2.60;;;11.40;93.40;;;;;;5110082;28;20023;-63
2022/04/05 03:30:13;;;;;;;6.53;2.90;;;11.40;93.30;;;;;;5113507;28;20077;-63
2022/04/05 03:32:39;;;;;;;4.63;2.67;;;11.40;93.30;;;;;;5113459;28;20459;-63
2022/04/05 03:35:06;;;;;;;5.68;2.95;;;11.40;93.20;;;;;;5113313;28;20034;-63
2022/04/05 03:37:31;;;;;;;7.07;3.85;;;11.40;93.40;;;;;;5112482;28;20428;-63
2022/04/05 03:39:57;;;;;;;6.00;3.28;;;11.40;93.50;;;;;;5113330;28;20466;-63
2022/04/05 03:42:22;;;;;;;4.93;3.13;;;11.30;93.40;;;;;;5113324;28;20027;-63
2022/04/05 03:44:49;;;;;;;8.73;3.13;;;11.30;93.50;;;;;;5113227;28;20050;-64
2022/04/05 03:47:14;;;;;;;8.55;3.45;;;11.40;93.40;;;;;;5113306;28;20110;-63
2022/04/05 03:49:41;;;;;;;5.95;3.63;;;11.40;93.40;;;;;;5113499;27;20447;-63
2022/04/05 03:52:07;;;;;;;5.00;2.95;;;11.30;93.80;;;;;;5113350;28;20031;-63
2022/04/05 03:54:33;;;;;;;5.53;3.40;;;11.30;93.60;;;;;;5113198;28;20020;-63
2022/04/05 03:56:59;;;;;;;6.25;3.05;;;11.30;93.50;;;;;;5113108;28;20050;-63
2022/04/05 03:59:24;;;;;;;4.70;2.65;;;11.30;93.30;;;;;;5112959;27;20466;-63
2022/04/05 04:01:50;;;;;;;4.85;3.08;;;11.30;93.20;;;;;;5112990;28;20093;-63
2022/04/05 04:04:16;;;;;;;5.50;2.90;;;11.30;93.10;;;;;;5112988;28;20019;-63
2022/04/05 04:06:41;;;;;;;4.28;2.72;;;11.30;93.00;;;;;;5112604;28;20398;-63
2022/04/05 04:09:07;;;;;;;4.80;2.92;;;11.30;92.90;;;;;;5112666;28;20080;-63
2022/04/05 04:11:33;;;;;;;6.07;3.00;;;11.30;93.10;;;;;;5112883;28;20389;-63
2022/04/05 04:13:58;;;;;;;5.80;3.05;;;11.30;93.00;;;;;;5112751;28;20040;-63
2022/04/05 04:16:24;;;;;;;4.63;2.35;;;11.30;93.20;;;;;;5110600;28;20154;-63
2022/04/05 04:18:50;;;;;;;4.72;2.70;;;11.30;93.00;;;;;;5109375;28;20069;-63
2022/04/05 04:21:16;;;;;;;6.13;2.95;;;11.30;93.00;;;;;;5110386;28;20087;-63
2022/04/05 04:23:41;;;;;;;6.28;3.25;;;11.20;93.20;;;;;;5112697;28;20020;-63
2022/04/05 04:26:07;;;;;;;7.88;3.30;;;11.20;93.30;;;;;;5112450;28;20028;-64
2022/04/05 04:28:33;;;;;;;7.38;3.78;;;11.20;93.70;;;;;;5112500;28;20108;-63
2022/04/05 04:30:58;;;;;;;5.82;3.42;;;11.10;93.70;;;;;;5110767;28;20422;-64
2022/04/05 04:33:24;;;;;;;5.80;3.45;;;11.00;94.00;;;;;;5109279;28;20062;-63
2022/04/05 04:35:50;;;;;;;6.68;3.67;;;11.00;94.00;;;;;;5109238;28;20374;-64
2022/04/05 04:38:16;;;;;;;7.13;3.90;;;11.00;94.20;;;;;;5111478;28;20077;-63
2022/04/05 04:40:52;;;;;;;6.70;3.88;;;10.90;94.50;;;;;;5112201;28;20047;-63
2022/04/05 04:43:19;;;;;;;6.50;3.90;;;10.90;94.70;;;;;;5112193;28;20405;-63
2022/04/05 04:45:45;;;;;;;7.30;4.70;;;10.90;94.90;;;;;;5112116;28;20054;-63
2022/04/05 04:48:13;;;;;;;7.40;3.85;;;10.90;94.90;;;;;;5111705;28;20504;-63
2022/04/05 04:50:39;;;;;;;5.55;3.95;;;10.80;95.20;;;;;;5110487;28;20076;-63
2022/04/05 04:53:05;;;;;;;8.57;4.18;;;10.80;95.20;;;;;;5111832;28;20024;-63
2022/04/05 04:55:32;;;;;;;6.10;3.70;;;10.80;95.30;;;;;;5111836;28;20016;-63
2022/04/05 04:57:58;;;;;;;7.80;3.75;;;10.80;95.40;;;;;;5111958;28;20035;-64
2022/04/05 05:00:24;;;;;;;7.90;4.32;;;10.80;95.50;;;;;;5111225;28;20019;-63
2022/04/05 05:02:50;;;;;;;8.18;4.57;;;10.80;95.70;;;;;;5108320;28;20033;-63
2022/04/05 05:05:20;;;;;;;6.15;3.85;;;10.80;95.60;;;;;;5108519;28;20066;-64
2022/04/05 05:07:47;;;;;;;8.50;4.40;;;10.80;95.60;;;;;;5110186;28;20027;-63
2022/04/05 05:10:14;;;;;;;7.10;4.30;;;10.80;95.60;;;;;;5097095;28;20050;-63
2022/04/05 05:12:40;;;;;;;8.85;4.38;;;10.80;95.70;;;;;;5088502;28;20240;-63
2022/04/05 05:15:08;;;;;;;8.27;4.28;;;10.80;95.60;;;;;;5087821;28;20391;-63
2022/04/05 05:17:35;;;;;;;7.47;3.75;;;10.80;95.70;;;;;;5088232;28;20035;-65
2022/04/05 05:20:02;;;;;;;7.93;4.18;;;10.80;96.00;;;;;;5088126;28;20146;-64
2022/04/05 05:22:28;;;;;;;5.47;3.72;;;10.80;95.70;;;;;;5090321;28;20105;-64
2022/04/05 05:24:53;;;;;;;7.68;3.83;;;10.70;95.90;;;;;;5089195;28;20473;-64
2022/04/05 05:27:19;;;;;;;9.32;4.00;;;10.80;95.70;;;;;;5087608;28;20111;-63
2022/04/05 05:29:44;;;;;;;8.05;4.57;;;10.70;96.10;;;;;;5094812;28;20024;-64
2022/04/05 05:32:10;;;;;;;8.18;4.03;;;10.70;96.00;;;;;;5107665;28;20020;-64
2022/04/05 05:34:36;;;;;;;9.43;4.40;;;10.70;96.50;;;;;;5108235;28;20031;-64
2022/04/05 05:37:03;;;;;;;8.93;4.75;;;10.70;96.50;;;;;;5108546;28;20055;-65
2022/04/05 05:39:29;;;;;;;9.85;5.18;;;10.60;96.50;;;;;;5108579;28;20020;-65
2022/04/05 05:41:54;;;;;;;7.47;4.45;;;10.60;96.80;;;;;;5107696;28;20048;-65
2022/04/05 05:44:20;;;;;;;10.73;4.70;;;10.60;96.70;;;;;;5107677;28;20019;-65
2022/04/05 05:46:46;;;;;;;9.23;4.97;;;10.60;97.00;;;;;;5109066;28;20030;-64
2022/04/05 05:49:12;;;;;;;9.63;5.38;;;10.60;96.90;;;;;;5111132;28;20059;-64
2022/04/05 05:51:37;;;;;;;8.43;4.97;;;10.60;96.80;;;;;;5110267;28;20045;-64
2022/04/05 05:54:04;;;;;;;9.13;4.82;;;10.60;96.90;;;;;;5110829;28;20027;-65
2022/04/05 05:56:30;;;;;;;8.38;4.80;;;10.70;96.60;;;;;;5110769;28;20023;-64
2022/04/05 05:58:55;;;;;;;10.52;6.13;;;10.60;96.90;;;;;;5109377;28;20028;-65
2022/04/05 06:01:23;;;;;;;7.65;4.68;;;10.60;97.00;;;;;;5107281;28;20062;-65
2022/04/05 06:03:49;;;;;;;11.57;4.72;;;10.60;97.00;;;;;;5107619;28;20031;-64
2022/04/05 06:06:15;;;;;;;12.43;5.25;;;10.60;96.80;;;;;;5107289;28;20020;-65
2022/04/05 06:08:41;;;;;;;13.13;4.65;;;10.60;96.60;;;;;;5108612;27;20056;-65
2022/04/05 06:11:07;;;;;;;11.75;4.88;;;10.70;96.80;;;;;;5107073;28;20425;-64
2022/04/05 06:13:36;;;;;;;8.27;4.30;;;10.70;96.60;;;;;;5107402;28;20069;-64
2022/04/05 06:16:03;;;;;;;9.05;5.20;;;10.80;96.60;;;;;;5107155;28;20026;-64
2022/04/05 06:18:28;;;;;;;7.38;4.68;;;10.80;96.50;;;;;;5109863;28;20165;-64
2022/04/05 06:20:54;;;;;;;7.97;4.65;;;10.80;96.20;;;;;;5109035;28;20063;-64
2022/04/05 06:23:19;;;;;;;9.30;3.92;;;10.90;95.90;;;;;;5107226;28;20057;-64
2022/04/05 06:25:45;;;;;;;6.60;4.60;;;10.90;95.60;;;;;;5107033;28;20049;-62
2022/04/05 06:28:11;;;;;;;8.00;4.32;;;11.00;95.80;;;;;;5106986;28;20039;-64
2022/04/05 06:30:38;;;;;;;10.02;5.72;;;11.00;95.70;;;;;;5107269;28;20019;-64
2022/04/05 06:33:15;;;;;;;11.23;3.95;;;11.00;95.70;;;;;;5110141;28;20091;-64
2022/04/05 06:36:01;;;;;;;7.68;4.10;;;11.10;95.60;;;;;;5110210;28;20667;-65
2022/04/05 06:38:28;;;;;;;6.78;4.03;;;11.10;95.20;;;;;;5109842;28;20431;-65
2022/04/05 06:40:54;;;;;;;8.75;4.30;;;11.20;95.00;;;;;;5109382;28;20019;-64
2022/04/05 06:43:23;;;;;;;9.57;4.40;;;11.40;94.90;;;;;;5110074;28;20039;-64
2022/04/05 06:45:48;;;;;;;6.40;3.90;;;11.50;94.60;;;;;;5109905;28;20475;-64
2022/04/05 06:48:14;;;;;;;8.02;3.90;;;11.70;93.90;;;;;;5108425;28;20032;-65
2022/04/05 06:50:40;;;;;;;5.78;3.40;;;11.70;93.80;;;;;;5109530;28;20020;-64
2022/04/05 06:53:08;;;;;;;6.85;3.60;;;11.80;93.00;;;;;;5110134;28;20131;-64
2022/04/05 06:55:34;;;;;;;4.28;3.25;;;11.90;93.40;;;;;;5110046;28;20119;-64
2022/04/05 06:58:00;;;;;;;6.93;4.47;;;11.90;92.90;;;;;;5103297;28;20028;-64
2022/04/05 07:00:26;;;;;;;6.40;3.95;;;11.90;92.70;;;;;;5109837;28;20042;-63
2022/04/05 07:02:54;;;;;;;6.40;3.53;;;12.00;92.90;;;;;;5107407;28;20039;-63
2022/04/05 07:05:20;;;;;;;7.70;3.50;;;12.10;92.50;;;;;;5110944;28;20034;-63
2022/04/05 07:07:46;;;;;;;7.18;6.07;;;12.30;92.40;;;;;;5112280;28;20024;-64
2022/04/05 07:10:17;;;;;;;6.78;3.95;;;12.40;92.50;;;;;;5114068;28;20024;-65
2022/04/05 07:12:43;;;;;;;5.43;3.22;;;12.50;91.70;;;;;;5113721;28;20095;-65
2022/04/05 07:15:10;;;;;;;4.90;2.80;;;12.50;91.50;;;;;;5113932;28;20221;-66
2022/04/05 07:17:37;;;;;;;2.78;1.85;;;12.60;90.80;;;;;;5107000;28;20467;-61
2022/04/05 07:20:04;;;;;;;5.55;2.47;;;12.60;90.80;;;;;;5093339;28;20110;-65
2022/04/05 07:22:30;;;;;;;3.88;2.40;;;12.70;90.90;;;;;;5090177;28;20070;-64
2022/04/05 07:24:55;;;;;;;3.25;1.90;;;12.70;90.60;;;;;;5090038;28;20024;-63
2022/04/05 07:27:21;;;;;;;3.00;2.20;;;12.70;90.50;;;;;;5090154;28;20024;-63
2022/04/05 07:29:47;;;;;;;3.67;2.13;;;12.80;90.40;;;;;;5100499;28;20091;-61
2022/04/05 07:32:12;;;;;;;6.57;2.72;;;12.90;90.50;;;;;;5113595;28;20024;-65
2022/04/05 07:34:38;;;;;;;3.33;2.03;;;13.20;90.00;;;;;;5113523;28;20060;-62
2022/04/05 07:37:04;;;;;;;4.22;2.83;;;13.40;88.50;;;;;;5113399;28;20027;-63
2022/04/05 07:39:29;;;;;;;6.65;3.08;;;13.50;88.20;;;;;;5113503;28;20102;-64
2022/04/05 07:41:55;;;;;;;6.35;2.97;;;13.60;87.20;;;;;;5113084;28;20450;-64
2022/04/05 07:44:20;;;;;;;6.75;3.05;;;13.80;87.10;;;;;;5113453;28;20378;-64
2022/04/05 07:46:46;;;;;;;3.38;2.40;;;13.90;87.70;;;;;;5113331;28;20386;-63
2022/04/05 07:49:12;;;;;;;4.72;2.42;;;14.10;85.60;;;;;;5113398;28;20024;-65
2022/04/05 07:51:38;;;;;;;3.90;2.70;;;14.40;84.10;;;;;;5113106;28;20042;-65
2022/04/05 07:54:05;;;;;;;6.40;2.83;;;14.90;83.40;;;;;;5113155;28;20027;-65
2022/04/05 07:56:31;;;;;;;4.40;2.80;;;15.00;80.50;;;;;;5113002;28;20436;-64
2022/04/05 07:58:57;;;;;;;3.70;2.88;;;15.10;82.10;;;;;;5113128;28;20466;-65
2022/04/05 08:01:24;;;;;;;5.13;2.83;;;15.30;81.50;;;;;;5112889;28;20261;-65
2022/04/05 08:03:50;;;;;;;4.78;2.70;;;15.70;80.70;;;;;;5112881;28;20080;-65
2022/04/05 08:06:16;;;;;;;5.88;2.72;;;15.70;76.60;;;;;;5113060;28;20058;-65
2022/04/05 08:08:42;;;;;;;2.95;2.35;;;15.90;77.10;;;;;;5113201;28;20055;-64
2022/04/05 08:11:08;;;;;;;4.63;2.40;;;15.90;76.20;;;;;;5113007;28;20450;-65
2022/04/05 08:13:33;;;;;;;3.63;2.40;;;16.30;76.90;;;;;;5112796;28;20080;-64
2022/04/05 08:15:59;;;;;;;5.82;3.25;;;16.70;72.60;;;;;;5112470;28;20080;-63
2022/04/05 08:18:24;;;;;;;5.70;2.85;;;17.10;72.00;;;;;;5112524;28;20028;-64
2022/04/05 08:20:50;;;;;;;5.53;2.70;;;17.40;71.00;;;;;;5112557;27;20168;-64
2022/04/05 08:23:16;;;;;;;5.00;2.72;;;17.80;70.20;;;;;;5111241;28;20410;-63
2022/04/05 08:25:41;;;;;;;5.65;2.65;;;18.00;67.20;;;;;;5109339;28;20103;-62
2022/04/05 08:28:07;;;;;;;5.20;2.80;;;18.30;68.60;;;;;;5110376;28;20035;-63
2022/04/05 08:30:33;;;;;;;3.65;2.60;;;18.20;67.10;;;;;;5112257;28;20062;-64
2022/04/05 08:32:59;;;;;;;4.97;2.58;;;17.80;69.00;;;;;;5106987;28;20054;-63
2022/04/05 08:35:25;;;;;;;4.78;2.45;;;18.00;68.70;;;;;;5102907;28;20020;-63
2022/04/05 08:37:53;;;;;;;6.22;3.08;;;17.90;66.80;;;;;;5111152;28;20081;-63
2022/04/05 08:40:22;;;;;;;6.13;2.55;;;18.30;68.00;;;;;;5109065;28;20440;-62
2022/04/05 08:42:53;;;;;;;4.90;2.63;;;18.60;63.70;;;;;;5109119;28;20054;-62
2022/04/05 08:45:19;;;;;;;5.20;2.70;;;19.30;65.40;;;;;;5112192;28;20027;-63
2022/04/05 08:47:52;;;;;;;4.97;2.17;;;19.70;64.50;;;;;;5109213;28;20121;-62
2022/04/05 08:50:21;;;;;;;4.53;2.78;;;20.50;59.70;;;;;;5112141;28;20023;-62
2022/04/05 08:52:47;;;;;;;3.67;2.38;;;22.10;59.70;;;;;;5111836;28;20023;-62
2022/04/05 08:55:15;;;;;;;4.93;2.67;;;22.30;54.50;;;;;;5110425;28;20047;-63
2022/04/05 08:57:41;;;;;;;4.18;2.63;;;22.20;54.70;;;;;;5108634;28;20030;-63
2022/04/05 09:00:09;;;;;;;4.05;2.83;;;21.00;54.90;;;;;;5109447;28;20027;-63
2022/04/05 09:02:35;;;;;;;2.97;2.33;;;20.40;56.50;;;;;;5111721;28;20386;-63
2022/04/05 09:05:01;;;;;;;5.20;2.55;;;20.20;60.20;;;;;;5111884;28;20024;-64
2022/04/05 09:07:37;;;;;;;3.42;2.58;;;19.80;61.70;;;;;;5111800;28;20059;-63
2022/04/05 09:10:14;;;;;;;4.80;3.03;;;19.50;63.50;;;;;;5111671;28;20089;-61
2022/04/05 09:12:50;;;;;;;3.72;2.70;;;18.70;64.10;;;;;;5111496;28;20424;-61
2022/04/05 09:15:16;;;;;;;6.53;2.50;;;20.20;63.20;;;;;;5111770;27;20030;-61
2022/04/05 09:17:43;;;;;;;5.20;2.65;;;21.40;58.30;;;;;;5111736;28;20032;-64
2022/04/05 09:20:10;;;;;;;5.38;2.92;;;22.00;56.50;;;;;;5111346;28;20036;-62
2022/04/05 09:22:36;;;;;;;3.72;2.67;;;21.40;56.60;;;;;;5094515;27;20052;-62
2022/04/05 09:25:07;;;;;;;3.65;2.40;;;20.60;58.50;;;;;;5087682;28;20050;-63
2022/04/05 09:27:51;;;;;;;2.72;2.25;;;19.50;58.60;;;;;;5087849;28;20035;-62
2022/04/05 09:30:19;;;;;;;3.60;2.00;;;18.30;62.40;;;;;;5103115;28;20038;-63
2022/04/05 09:32:48;;;;;;;2.75;2.05;;;17.50;65.30;;;;;;5111564;28;20031;-63
2022/04/05 09:35:16;;;;;;;2.22;1.73;;;17.30;68.30;;;;;;5111378;28;20051;-64
2022/04/05 09:37:42;;;;;;;3.72;2.13;;;17.20;69.10;;;;;;5110773;28;20031;-65
2022/04/05 09:40:22;;;;;;;4.60;2.40;;;16.90;69.40;;;;;;5111045;28;20023;-65
2022/04/05 09:43:17;;;;;;;2.97;2.00;;;16.60;69.00;;;;;;5111223;28;20031;-65
2022/04/05 09:45:52;;;;;;;3.42;1.75;;;16.10;68.70;;;;;;5089333;28;20051;-61
2022/04/05 09:48:23;;;;;;;5.82;2.47;;;16.20;71.40;;;;;;5110752;28;20023;-62
2022/04/05 09:51:10;;;;;;;4.95;2.30;;;16.20;71.50;;;;;;5110168;28;20052;-64
2022/04/05 09:53:39;;;;;;;6.38;2.45;;;16.20;72.10;;;;;;5090349;28;20039;-62
2022/04/05 09:56:09;;;;;;;3.75;2.03;;;16.40;72.60;;;;;;5090142;28;20024;-61
2022/04/05 09:58:35;;;;;;;6.05;2.88;;;17.20;69.10;;;;;;5090378;28;20111;-60
2022/04/05 10:01:07;;;;;;;3.55;2.22;;;18.30;65.60;;;;;;5106505;28;20055;-61
2022/04/05 10:03:35;;;;;;;6.97;2.35;;;18.00;63.80;;;;;;5099226;28;20075;-64
2022/04/05 10:06:02;;;;;;;6.35;2.20;;;17.90;63.40;;;;;;5106546;28;20514;-63
2022/04/05 10:08:32;;;;;;;3.97;2.70;;;17.70;66.00;;;;;;5107738;28;20031;-63
2022/04/05 10:10:59;;;;;;;4.47;3.03;;;17.80;64.40;;;;;;5107220;28;20174;-63
2022/04/05 10:13:26;;;;;;;5.63;2.88;;;17.40;66.20;;;;;;5107449;28;20439;-63
2022/04/05 10:15:53;;;;;;;7.40;3.30;;;17.30;67.80;;;;;;5107271;28;20023;-63
2022/04/05 10:18:20;;;;;;;5.57;2.78;;;17.10;68.60;;;;;;5107274;28;20038;-62
2022/04/05 10:20:50;;;;;;;6.13;3.42;;;17.40;68.30;;;;;;5097010;28;20055;-63
2022/04/05 10:23:19;;;;;;;5.63;3.43;;;18.10;65.90;;;;;;5087064;28;20058;-63
2022/04/05 10:25:48;;;;;;;8.38;3.38;;;20.00;60.30;;;;;;5087434;28;20035;-63
2022/04/05 10:28:16;;;;;;;5.38;3.17;;;23.60;53.60;;;;;;5088128;28;20475;-63
2022/04/05 10:30:46;;;;;;;6.30;3.20;;;27.80;43.80;;;;;;5105098;28;20027;-64
2022/04/05 10:33:24;;;;;;;6.07;3.28;;;29.60;39.60;;;;;;5110110;28;20024;-63
2022/04/05 10:36:00;;;;;;;5.32;3.35;;;29.40;39.20;;;;;;5110054;28;20024;-64
2022/04/05 10:38:27;;;;;;;6.32;3.42;;;26.60;40.00;;;;;;5113158;28;20457;-62
2022/04/05 10:41:11;;;;;;;7.05;4.32;;;23.90;45.40;;;;;;5114124;28;20028;-63
2022/04/05 10:43:38;;;;;;;4.50;3.42;;;21.90;49.10;;;;;;5114313;28;20027;-63
2022/04/05 10:46:05;;;;;;;7.68;4.70;;;20.40;54.00;;;;;;5114482;28;20039;-62
2022/04/05 10:48:31;;;;;;;8.73;4.10;;;19.50;57.00;;;;;;5113064;28;20031;-63
2022/04/05 10:51:05;;;;;;;7.65;4.45;;;19.20;60.60;;;;;;5114516;28;20040;-64
2022/04/05 10:53:34;;;;;;;7.60;4.20;;;18.70;60.60;;;;;;5114467;28;20494;-64
2022/04/05 10:56:10;;;;;;;9.52;4.32;;;18.20;63.10;;;;;;5114233;28;20031;-63
2022/04/05 10:58:48;;;;;;;9.43;4.18;;;17.70;64.30;;;;;;5113356;27;20031;-64
2022/04/05 11:01:23;;;;;;;7.68;3.95;;;17.50;65.80;;;;;;5104978;28;20031;-64
2022/04/05 11:04:18;;;;;;;4.78;2.75;;;17.20;66.30;;;;;;5109393;28;20031;-63
2022/04/05 11:07:02;;;;;;;4.10;2.85;;;17.20;66.20;;;;;;5113235;28;20365;-68
2022/04/05 11:09:29;;;;;;;3.20;2.60;;;17.30;64.30;;;;;;5113603;28;20020;-68
2022/04/05 11:11:55;;;;;;;7.63;3.25;;;17.30;65.00;;;;;;5113738;28;20023;-70
2022/04/05 11:14:40;;;;;;;7.80;3.58;;;17.50;64.00;;;;;;5103859;28;20096;-68
2022/04/05 11:17:08;;;;;;;6.35;3.30;;;17.70;62.00;;;;;;5090051;28;20072;-67
2022/04/05 11:19:39;;;;;;;4.80;3.05;;;17.80;62.50;;;;;;5088631;28;20681;-66
2022/04/05 11:22:06;;;;;;;5.60;2.88;;;18.10;60.30;;;;;;5089957;28;20044;-67
2022/04/05 11:24:50;;;;;;;5.20;2.78;;;18.50;59.50;;;;;;5090247;28;20482;-68
2022/04/05 11:27:46;;;;;;;6.65;3.13;;;20.50;57.40;;;;;;5091591;28;20028;-68
2022/04/05 11:30:21;;;;;;;8.25;2.83;;;23.00;51.60;;;;;;5100930;28;20072;-70
2022/04/05 11:33:17;;;;;;;4.80;2.40;;;22.50;48.20;;;;;;5110232;28;20047;-70
2022/04/05 11:35:49;;;;;;;4.05;2.40;;;23.80;46.40;;;;;;5110070;28;20077;-68
2022/04/05 11:38:18;;;;;;;5.45;2.17;;;22.40;46.10;;;;;;5110403;28;20024;-71
2022/04/05 11:41:08;;;;;;;4.95;2.72;;;21.80;49.80;;;;;;5110219;28;20024;-70
2022/04/05 11:43:40;;;;;;;5.53;2.25;;;21.70;48.60;;;;;;5110149;28;20031;-68
2022/04/05 11:46:18;;;;;;;6.35;2.60;;;21.40;48.40;;;;;;5110284;28;20035;-70
2022/04/05 11:48:46;;;;;;;4.65;2.20;;;21.90;48.20;;;;;;5109271;28;20039;-69
2022/04/05 11:51:16;;;;;;;4.28;2.45;;;23.20;45.20;;;;;;5110010;28;20032;-70
2022/04/05 11:53:43;;;;;;;5.25;2.50;;;24.30;44.10;;;;;;5110056;28;20031;-67
2022/04/05 11:56:22;;;;;;;10.07;2.15;;;25.60;39.70;;;;;;5110937;28;20179;-67
2022/04/05 11:58:48;;;;;;;6.32;2.28;;;26.00;41.20;;;;;;5109323;28;20023;-65
2022/04/05 12:01:20;;;;;;;7.05;1.95;;;26.10;39.00;;;;;;5109819;28;20457;-65
2022/04/05 12:03:57;;;;;;;7.55;2.17;;;24.90;39.90;;;;;;5109472;28;20028;-65
2022/04/05 12:06:32;;;;;;;5.82;2.33;;;25.50;40.00;;;;;;5109554;28;20035;-66
2022/04/05 12:09:06;;;;;;;4.47;2.00;;;29.10;37.30;;;;;;5109674;28;20434;-67
2022/04/05 12:11:33;;;;;;;6.60;1.95;;;28.50;34.40;;;;;;5109783;28;20028;-66
2022/04/05 12:14:01;;;;;;;5.00;2.50;;;27.60;36.70;;;;;;5109644;28;20035;-66
2022/04/05 12:16:28;;;;;;;6.70;2.70;;;25.30;38.10;;;;;;5109397;28;20044;-66
2022/04/05 12:18:57;;;;;;;5.65;2.28;;;24.20;41.20;;;;;;5109541;28;20444;-66
2022/04/05 12:21:27;;;;;;;4.05;2.45;;;22.80;43.60;;;;;;5109231;28;20079;-67
2022/04/05 12:23:53;;;;;;;7.30;2.13;;;23.30;45.30;;;;;;5109682;28;20062;-65
2022/04/05 12:26:23;;;;;;;6.90;2.63;;;24.90;38.30;;;;;;5109222;28;20023;-66
2022/04/05 12:28:59;;;;;;;6.10;1.98;;;27.40;35.50;;;;;;5109255;28;20482;-65
2022/04/05 12:31:30;;;;;;;6.47;2.17;;;31.50;33.10;;;;;;5109195;28;20485;-65
2022/04/05 12:33:57;;;;;;;4.95;1.80;;;33.70;30.50;;;;;;5109044;28;20474;-66
2022/04/05 12:36:25;;;;;;;6.47;2.22;;;34.40;28.30;;;;;;5108710;28;20024;-68
2022/04/05 12:38:51;;;;;;;7.00;2.40;;;35.40;27.80;;;;;;5109005;28;20107;-68
2022/04/05 12:41:18;;;;;;;5.32;2.15;;;36.20;27.10;;;;;;5109226;28;20067;-68
2022/04/05 12:44:01;;;;;;;7.70;2.80;;;36.10;25.70;;;;;;5109499;28;20031;-67
2022/04/05 12:46:36;;;;;;;7.57;2.53;;;34.90;26.60;;;;;;5108931;28;20035;-68
2022/04/05 12:49:21;;;;;;;8.68;3.05;;;36.50;26.80;;;;;;5109572;28;20072;-66